Time;durP1;ratioP1;P1;durP2;ratioP2;P2;SDS_P1;SDS_P2;PMS_P1;PMS_P2;Temp;Humidity;BMP_temperature;BMP_pressure;BME280_temperature;BME280_humidity;BME280_pressure;Samples;Min_cycle;Max_cycle;Signal;HPM_P1;HPM_P2
2023/12/29 00:01:31;;;;;;;6.03;1.38;;;;;;;;;;5047885;28;20119;-80
2023/12/29 00:03:57;;;;;;;7.63;1.38;;;;;;;;;;5044051;28;20033;-79
2023/12/29 00:06:22;;;;;;;7.60;1.55;;;;;;;;;;5039839;28;20033;-80
2023/12/29 00:08:47;;;;;;;6.88;1.92;;;;;;;;;;5040098;28;20037;-79
2023/12/29 00:11:18;;;;;;;6.88;1.60;;;;;;;;;;5045391;28;20396;-80
2023/12/29 00:13:43;;;;;;;7.78;1.52;;;;;;;;;;5039755;28;20029;-80
2023/12/29 00:16:09;;;;;;;8.65;1.50;;;;;;;;;;5040653;28;20095;-80
2023/12/29 00:18:37;;;;;;;6.10;1.50;;;;;;;;;;5038666;28;20021;-78
2023/12/29 00:21:02;;;;;;;9.80;1.48;;;;;;;;;;5017433;28;20044;-78
2023/12/29 00:23:28;;;;;;;11.50;1.65;;;;;;;;;;5036208;28;20033;-78
2023/12/29 00:25:53;;;;;;;9.15;1.92;;;;;;;;;;5038773;28;20022;-78
2023/12/29 00:28:18;;;;;;;6.38;1.60;;;;;;;;;;5034745;28;20499;-78
2023/12/29 00:30:44;;;;;;;8.25;1.60;;;;;;;;;;5036436;28;20171;-78
2023/12/29 00:33:10;;;;;;;7.95;1.70;;;;;;;;;;5035271;28;20033;-78
2023/12/29 00:35:39;;;;;;;7.70;1.95;;;;;;;;;;5037458;28;20548;-78
2023/12/29 00:38:05;;;;;;;9.52;1.83;;;;;;;;;;5032099;28;20523;-78
2023/12/29 00:40:31;;;;;;;8.60;1.60;;;;;;;;;;5040724;28;20753;-78
2023/12/29 00:42:56;;;;;;;10.23;1.52;;;;;;;;;;5035891;28;20036;-78
2023/12/29 00:45:21;;;;;;;7.50;1.80;;;;;;;;;;5037579;28;20044;-78
2023/12/29 00:47:48;;;;;;;6.03;1.85;;;;;;;;;;5039006;28;20033;-78
2023/12/29 00:50:14;;;;;;;6.13;1.60;;;;;;;;;;5038746;28;20087;-78
2023/12/29 00:52:39;;;;;;;8.18;1.90;;;;;;;;;;5037040;28;20025;-78
2023/12/29 00:55:05;;;;;;;7.95;1.67;;;;;;;;;;5040625;28;20032;-78
2023/12/29 00:57:31;;;;;;;7.10;1.50;;;;;;;;;;5037653;28;20514;-78
2023/12/29 00:59:56;;;;;;;4.38;1.42;;;;;;;;;;5039032;28;20021;-78
2023/12/29 01:02:22;;;;;;;6.47;1.50;;;;;;;;;;5041114;28;20025;-78
2023/12/29 01:04:48;;;;;;;8.52;1.70;;;;;;;;;;5042582;28;20021;-78
2023/12/29 01:07:13;;;;;;;9.45;1.77;;;;;;;;;;5040793;28;20036;-78
2023/12/29 01:09:40;;;;;;;11.02;2.00;;;;;;;;;;5046293;28;20044;-79
2023/12/29 01:12:05;;;;;;;7.65;1.77;;;;;;;;;;5039405;28;20055;-78
2023/12/29 01:14:31;;;;;;;6.35;1.50;;;;;;;;;;5035512;28;20036;-78
2023/12/29 01:16:56;;;;;;;10.63;1.60;;;;;;;;;;5041737;28;20021;-78
2023/12/29 01:19:22;;;;;;;7.10;1.60;;;;;;;;;;5042463;28;20025;-78
2023/12/29 01:21:47;;;;;;;8.32;1.48;;;;;;;;;;5038483;28;20103;-79
2023/12/29 01:24:12;;;;;;;7.30;1.60;;;;;;;;;;5018457;28;20033;-78
2023/12/29 01:26:38;;;;;;;9.32;1.50;;;;;;;;;;5040940;28;20075;-78
2023/12/29 01:29:05;;;;;;;5.32;1.50;;;;;;;;;;5037974;28;20025;-79
2023/12/29 01:31:31;;;;;;;6.25;1.77;;;;;;;;;;5035256;28;20025;-77
2023/12/29 01:33:56;;;;;;;8.57;1.50;;;;;;;;;;5031130;28;20044;-78
2023/12/29 01:36:22;;;;;;;7.88;1.70;;;;;;;;;;5048619;28;20028;-79
2023/12/29 01:38:47;;;;;;;8.05;1.60;;;;;;;;;;5039492;28;20028;-78
2023/12/29 01:41:14;;;;;;;5.70;1.48;;;;;;;;;;5038608;28;20774;-78
2023/12/29 01:43:57;;;;;;;6.25;1.52;;;;;;;;;;5041342;28;20035;-78
2023/12/29 01:46:25;;;;;;;7.85;1.70;;;;;;;;;;5053542;28;20026;-78
2023/12/29 01:48:51;;;;;;;7.22;1.58;;;;;;;;;;5037631;28;20036;-78
2023/12/29 01:51:18;;;;;;;6.38;1.50;;;;;;;;;;5035039;28;20033;-78
2023/12/29 01:53:44;;;;;;;6.18;1.40;;;;;;;;;;5059168;28;20029;-78
2023/12/29 01:56:10;;;;;;;7.35;1.38;;;;;;;;;;5028310;28;20033;-78
2023/12/29 01:58:35;;;;;;;9.05;1.80;;;;;;;;;;5042149;28;20082;-79
2023/12/29 02:01:01;;;;;;;6.47;1.65;;;;;;;;;;5040416;28;21256;-78
2023/12/29 02:03:27;;;;;;;6.95;1.30;;;;;;;;;;5044417;28;20518;-78
2023/12/29 02:05:55;;;;;;;6.53;1.65;;;;;;;;;;5038414;28;20030;-79
2023/12/29 02:08:22;;;;;;;8.82;1.73;;;;;;;;;;5035019;28;20443;-80
2023/12/29 02:10:48;;;;;;;5.22;1.45;;;;;;;;;;5037664;28;20499;-80
2023/12/29 02:13:13;;;;;;;8.35;2.00;;;;;;;;;;5040781;28;20068;-80
2023/12/29 02:15:38;;;;;;;8.82;1.88;;;;;;;;;;5038339;28;20039;-80
2023/12/29 02:18:07;;;;;;;6.13;1.50;;;;;;;;;;5035638;28;20071;-79
2023/12/29 02:20:33;;;;;;;5.70;1.42;;;;;;;;;;5038026;28;20029;-80
2023/12/29 02:23:00;;;;;;;8.98;1.92;;;;;;;;;;5036931;28;20049;-80
2023/12/29 02:25:25;;;;;;;7.20;1.80;;;;;;;;;;5035898;28;20039;-79
2023/12/29 02:28:10;;;;;;;8.07;1.65;;;;;;;;;;5040130;28;20545;-80
2023/12/29 02:30:41;;;;;;;8.30;2.10;;;;;;;;;;5063888;28;20036;-80
2023/12/29 02:33:13;;;;;;;5.55;1.75;;;;;;;;;;5036949;28;20030;-80
2023/12/29 02:35:42;;;;;;;5.07;1.38;;;;;;;;;;5044784;28;20111;-80
2023/12/29 02:38:10;;;;;;;5.97;1.40;;;;;;;;;;5043714;28;20040;-78
2023/12/29 02:40:36;;;;;;;6.80;1.50;;;;;;;;;;5044297;28;20024;-78
2023/12/29 02:43:02;;;;;;;8.52;1.48;;;;;;;;;;5040689;28;20031;-78
2023/12/29 02:45:27;;;;;;;7.40;1.60;;;;;;;;;;5061124;28;20101;-78
2023/12/29 02:47:53;;;;;;;8.30;1.40;;;;;;;;;;5044083;28;20104;-78
2023/12/29 02:50:18;;;;;;;9.98;1.55;;;;;;;;;;5036711;28;21248;-79
2023/12/29 02:52:45;;;;;;;4.88;1.50;;;;;;;;;;5042231;28;20518;-78
2023/12/29 02:55:10;;;;;;;5.82;1.30;;;;;;;;;;5045348;28;20562;-78
2023/12/29 02:57:35;;;;;;;8.25;1.40;;;;;;;;;;5039098;28;20185;-78
2023/12/29 03:00:01;;;;;;;8.50;2.30;;;;;;;;;;5039686;28;20029;-79
2023/12/29 03:02:26;;;;;;;8.85;1.70;;;;;;;;;;5036312;28;20480;-78
2023/12/29 03:04:51;;;;;;;7.45;1.77;;;;;;;;;;5043440;28;20041;-78
2023/12/29 03:07:17;;;;;;;7.60;1.60;;;;;;;;;;5042668;28;20029;-78
2023/12/29 03:09:43;;;;;;;5.47;1.50;;;;;;;;;;5019971;28;20041;-80
2023/12/29 03:12:08;;;;;;;8.68;1.60;;;;;;;;;;5041433;28;20029;-80
2023/12/29 03:14:33;;;;;;;8.00;1.70;;;;;;;;;;5038421;28;20028;-80
2023/12/29 03:16:59;;;;;;;7.50;1.67;;;;;;;;;;5054743;28;21281;-79
2023/12/29 03:19:25;;;;;;;11.27;2.40;;;;;;;;;;5045336;28;20090;-79
2023/12/29 03:21:50;;;;;;;6.90;1.67;;;;;;;;;;5038207;28;20033;-80
2023/12/29 03:24:16;;;;;;;10.90;1.60;;;;;;;;;;5042141;28;20035;-80
2023/12/29 03:26:42;;;;;;;12.13;2.15;;;;;;;;;;5042549;28;20574;-80
2023/12/29 03:29:07;;;;;;;9.57;1.70;;;;;;;;;;5042512;28;20096;-80
2023/12/29 03:31:33;;;;;;;8.07;1.77;;;;;;;;;;5044114;28;20024;-80
2023/12/29 03:33:58;;;;;;;11.98;2.22;;;;;;;;;;5046191;28;20052;-80
2023/12/29 03:36:23;;;;;;;10.60;1.92;;;;;;;;;;5039174;28;20062;-80
2023/12/29 03:38:49;;;;;;;8.50;1.50;;;;;;;;;;5052454;28;20025;-80
2023/12/29 03:41:14;;;;;;;8.65;1.85;;;;;;;;;;5045204;28;20371;-80
2023/12/29 03:43:41;;;;;;;11.45;2.25;;;;;;;;;;5044267;28;20033;-80
2023/12/29 03:46:21;;;;;;;7.80;2.20;;;;;;;;;;5042590;28;20025;-80
2023/12/29 03:48:47;;;;;;;7.75;1.63;;;;;;;;;;5039884;28;20030;-80
2023/12/29 03:51:13;;;;;;;10.35;1.70;;;;;;;;;;5043010;28;20492;-79
2023/12/29 03:53:39;;;;;;;8.63;2.20;;;;;;;;;;5050581;28;20451;-80
2023/12/29 03:56:09;;;;;;;9.13;1.77;;;;;;;;;;5053452;28;20059;-80
2023/12/29 03:58:37;;;;;;;9.95;1.90;;;;;;;;;;5041891;28;20132;-80
2023/12/29 04:01:03;;;;;;;7.32;1.77;;;;;;;;;;5047752;28;20112;-80
2023/12/29 04:03:28;;;;;;;11.57;2.20;;;;;;;;;;5046586;28;20104;-79
2023/12/29 04:05:54;;;;;;;7.80;1.52;;;;;;;;;;5042465;28;20121;-80
2023/12/29 04:08:19;;;;;;;8.48;1.50;;;;;;;;;;5040690;28;20116;-79
2023/12/29 04:10:45;;;;;;;9.40;1.85;;;;;;;;;;5042951;28;20471;-78
2023/12/29 04:13:10;;;;;;;8.98;2.13;;;;;;;;;;5049193;28;20031;-78
2023/12/29 04:15:35;;;;;;;10.48;1.75;;;;;;;;;;5038456;28;20056;-78
2023/12/29 04:18:01;;;;;;;11.73;1.88;;;;;;;;;;5048371;28;20368;-79
2023/12/29 04:20:26;;;;;;;7.97;1.67;;;;;;;;;;5049206;28;20025;-78
2023/12/29 04:22:52;;;;;;;9.05;2.38;;;;;;;;;;5044136;28;20491;-78
2023/12/29 04:25:17;;;;;;;14.20;2.38;;;;;;;;;;5056390;28;20482;-78
2023/12/29 04:27:42;;;;;;;8.48;2.00;;;;;;;;;;5041151;28;20037;-79
2023/12/29 04:30:08;;;;;;;12.52;2.42;;;;;;;;;;5039744;28;20029;-80
2023/12/29 04:32:34;;;;;;;10.40;1.88;;;;;;;;;;5040279;28;20086;-79
2023/12/29 04:34:59;;;;;;;10.38;2.20;;;;;;;;;;5043803;28;20033;-80
2023/12/29 04:37:25;;;;;;;10.10;1.88;;;;;;;;;;5043287;28;20033;-80
2023/12/29 04:39:51;;;;;;;10.88;2.00;;;;;;;;;;5040471;28;20143;-80
2023/12/29 04:42:17;;;;;;;8.98;1.95;;;;;;;;;;5043916;28;20116;-80
2023/12/29 04:44:43;;;;;;;7.53;1.95;;;;;;;;;;5032528;28;20029;-80
2023/12/29 04:47:09;;;;;;;8.93;1.85;;;;;;;;;;5045102;28;20112;-80
2023/12/29 04:49:34;;;;;;;9.85;1.80;;;;;;;;;;5045032;28;20108;-80
2023/12/29 04:52:00;;;;;;;10.65;2.25;;;;;;;;;;5043413;28;20084;-80
2023/12/29 04:54:25;;;;;;;10.35;2.10;;;;;;;;;;5041259;28;20032;-80
2023/12/29 04:56:51;;;;;;;11.27;2.05;;;;;;;;;;5041168;28;20269;-80
2023/12/29 04:59:16;;;;;;;8.57;1.73;;;;;;;;;;5039872;28;20378;-80
2023/12/29 05:01:41;;;;;;;12.00;2.08;;;;;;;;;;5049365;28;20029;-80
2023/12/29 05:04:08;;;;;;;9.52;1.77;;;;;;;;;;5041260;28;20036;-80
2023/12/29 05:06:33;;;;;;;12.85;1.85;;;;;;;;;;5042810;28;20028;-80
2023/12/29 05:08:59;;;;;;;10.90;1.90;;;;;;;;;;5037554;28;20519;-80
2023/12/29 05:11:24;;;;;;;9.65;1.98;;;;;;;;;;5045551;28;20483;-80
2023/12/29 05:13:50;;;;;;;6.82;1.77;;;;;;;;;;5037589;28;20096;-80
2023/12/29 05:16:15;;;;;;;12.77;2.33;;;;;;;;;;5039512;28;20051;-80
2023/12/29 05:18:41;;;;;;;14.00;2.03;;;;;;;;;;5040431;28;20033;-78
2023/12/29 05:21:14;;;;;;;9.63;1.83;;;;;;;;;;5036539;28;20033;-78
2023/12/29 05:23:39;;;;;;;11.55;2.05;;;;;;;;;;5041469;28;20029;-78
2023/12/29 05:26:05;;;;;;;11.02;1.85;;;;;;;;;;5041811;28;20090;-78
2023/12/29 05:28:30;;;;;;;8.60;1.90;;;;;;;;;;5037065;28;20029;-78
2023/12/29 05:30:56;;;;;;;9.52;1.65;;;;;;;;;;5035697;28;20067;-78
2023/12/29 05:33:21;;;;;;;10.52;1.60;;;;;;;;;;5040698;28;20033;-78
2023/12/29 05:35:46;;;;;;;11.93;2.28;;;;;;;;;;5035272;28;20041;-78
2023/12/29 05:38:12;;;;;;;9.43;1.48;;;;;;;;;;5043014;28;20041;-79
2023/12/29 05:40:37;;;;;;;9.63;1.80;;;;;;;;;;5040015;28;20511;-80
2023/12/29 05:43:02;;;;;;;10.48;1.60;;;;;;;;;;5043368;28;20861;-79
2023/12/29 05:45:28;;;;;;;11.27;2.00;;;;;;;;;;5042891;28;20021;-80
2023/12/29 05:47:53;;;;;;;11.68;2.20;;;;;;;;;;5041949;28;20483;-80
2023/12/29 05:50:19;;;;;;;10.27;2.22;;;;;;;;;;5032748;28;20030;-80
2023/12/29 05:52:45;;;;;;;16.17;2.58;;;;;;;;;;5043672;28;20020;-80
2023/12/29 05:55:10;;;;;;;9.43;1.92;;;;;;;;;;5036981;28;20487;-80
2023/12/29 05:57:35;;;;;;;8.40;1.77;;;;;;;;;;5049421;28;20058;-80
2023/12/29 06:00:01;;;;;;;9.95;1.90;;;;;;;;;;5042841;28;20029;-80
2023/12/29 06:02:27;;;;;;;9.65;1.55;;;;;;;;;;5041112;28;20121;-80
2023/12/29 06:04:53;;;;;;;10.40;1.90;;;;;;;;;;5043606;28;20039;-80
2023/12/29 06:07:18;;;;;;;8.48;1.70;;;;;;;;;;5038588;28;20033;-80
2023/12/29 06:09:44;;;;;;;10.75;1.88;;;;;;;;;;5037606;28;20395;-80
2023/12/29 06:12:10;;;;;;;9.48;1.73;;;;;;;;;;5036315;28;20845;-80
2023/12/29 06:14:36;;;;;;;9.70;1.70;;;;;;;;;;5040006;28;20044;-80
2023/12/29 06:17:02;;;;;;;9.38;1.95;;;;;;;;;;5048104;28;20078;-80
2023/12/29 06:19:28;;;;;;;8.30;1.60;;;;;;;;;;5043859;28;20021;-80
2023/12/29 06:21:53;;;;;;;6.65;1.55;;;;;;;;;;5036858;28;20108;-80
2023/12/29 06:24:19;;;;;;;10.25;1.90;;;;;;;;;;5038804;28;20132;-80
2023/12/29 06:26:44;;;;;;;10.30;1.60;;;;;;;;;;5029530;28;20036;-80
2023/12/29 06:29:10;;;;;;;7.40;1.23;;;;;;;;;;5033649;28;20479;-80
2023/12/29 06:31:35;;;;;;;10.43;1.50;;;;;;;;;;5024816;28;20048;-79
2023/12/29 06:34:01;;;;;;;9.13;1.60;;;;;;;;;;5033137;28;20116;-80
2023/12/29 06:36:26;;;;;;;8.13;1.70;;;;;;;;;;5033398;28;20025;-80
2023/12/29 06:38:52;;;;;;;10.40;1.73;;;;;;;;;;5050392;28;20147;-79
2023/12/29 06:41:19;;;;;;;14.13;1.85;;;;;;;;;;5030214;28;20095;-79
2023/12/29 06:43:45;;;;;;;6.55;1.48;;;;;;;;;;5035620;28;20033;-79
2023/12/29 06:46:12;;;;;;;8.80;1.50;;;;;;;;;;5034832;28;20025;-79
2023/12/29 06:48:37;;;;;;;7.05;1.55;;;;;;;;;;5040476;28;20039;-79
2023/12/29 06:51:03;;;;;;;8.95;1.35;;;;;;;;;;5039137;28;20390;-79
2023/12/29 06:53:28;;;;;;;8.13;1.38;;;;;;;;;;5033981;28;20517;-79
2023/12/29 06:55:54;;;;;;;8.90;1.65;;;;;;;;;;5034390;28;20455;-79
2023/12/29 06:58:19;;;;;;;10.68;2.00;;;;;;;;;;5036188;28;20024;-79
2023/12/29 07:00:45;;;;;;;6.45;1.40;;;;;;;;;;5033399;28;20192;-79
2023/12/29 07:03:14;;;;;;;7.47;1.60;;;;;;;;;;5038693;28;20071;-79
2023/12/29 07:05:39;;;;;;;8.50;2.00;;;;;;;;;;5039231;28;20025;-79
2023/12/29 07:08:04;;;;;;;6.28;1.85;;;;;;;;;;5037987;28;20453;-78
2023/12/29 07:10:30;;;;;;;12.73;2.05;;;;;;;;;;5035087;28;20508;-78
2023/12/29 07:12:55;;;;;;;5.07;1.77;;;;;;;;;;5034347;28;20064;-78
2023/12/29 07:15:22;;;;;;;7.82;1.73;;;;;;;;;;5049910;28;20024;-79
2023/12/29 07:17:48;;;;;;;6.88;1.65;;;;;;;;;;5041862;28;20029;-79
2023/12/29 07:20:13;;;;;;;6.93;1.77;;;;;;;;;;5042270;28;20095;-78
2023/12/29 07:22:38;;;;;;;7.45;1.60;;;;;;;;;;5035203;28;20029;-79
2023/12/29 07:25:04;;;;;;;4.45;1.35;;;;;;;;;;5037320;28;20032;-78
2023/12/29 07:27:30;;;;;;;5.80;1.55;;;;;;;;;;5034371;28;20059;-78
2023/12/29 07:29:55;;;;;;;8.30;1.92;;;;;;;;;;5044062;28;20025;-79
2023/12/29 07:32:21;;;;;;;7.50;1.70;;;;;;;;;;5038007;28;20029;-79
2023/12/29 07:34:46;;;;;;;6.97;1.88;;;;;;;;;;5059641;28;20056;-79
2023/12/29 07:37:12;;;;;;;6.47;1.50;;;;;;;;;;5034328;28;20030;-79
2023/12/29 07:39:38;;;;;;;6.25;1.70;;;;;;;;;;5040360;28;20037;-79
2023/12/29 07:42:04;;;;;;;6.22;1.73;;;;;;;;;;5040654;28;20057;-78
2023/12/29 07:44:29;;;;;;;5.90;1.75;;;;;;;;;;5037703;28;20501;-79
2023/12/29 07:46:58;;;;;;;8.18;1.67;;;;;;;;;;5035085;28;20037;-79
2023/12/29 07:49:23;;;;;;;4.70;1.42;;;;;;;;;;5044442;28;20056;-79
2023/12/29 07:51:49;;;;;;;4.72;1.40;;;;;;;;;;5041329;28;20483;-79
2023/12/29 07:54:15;;;;;;;6.88;1.90;;;;;;;;;;5038556;28;20017;-79
2023/12/29 07:56:40;;;;;;;7.90;1.48;;;;;;;;;;5036280;28;20037;-79
2023/12/29 07:59:07;;;;;;;5.60;1.70;;;;;;;;;;5037238;28;20079;-80
2023/12/29 08:01:32;;;;;;;8.43;1.50;;;;;;;;;;5039033;28;20117;-80
2023/12/29 08:03:58;;;;;;;7.57;2.25;;;;;;;;;;5039851;28;20028;-80
2023/12/29 08:06:23;;;;;;;5.18;1.45;;;;;;;;;;5037810;28;20432;-80
2023/12/29 08:08:48;;;;;;;11.05;1.92;;;;;;;;;;5036881;28;20033;-80
2023/12/29 08:11:16;;;;;;;6.28;1.67;;;;;;;;;;5034443;28;20020;-80
2023/12/29 08:13:42;;;;;;;6.07;1.80;;;;;;;;;;5043696;28;20067;-80
2023/12/29 08:16:08;;;;;;;10.55;1.90;;;;;;;;;;5036385;28;20029;-80
2023/12/29 08:18:35;;;;;;;6.05;2.10;;;;;;;;;;5035540;28;20026;-80
2023/12/29 08:21:01;;;;;;;4.60;1.50;;;;;;;;;;5039138;28;20025;-80
2023/12/29 08:23:26;;;;;;;6.40;1.58;;;;;;;;;;5028973;28;20095;-80
2023/12/29 08:25:52;;;;;;;6.00;1.80;;;;;;;;;;5032907;28;20032;-80
2023/12/29 08:28:18;;;;;;;5.05;1.73;;;;;;;;;;5035636;28;20120;-80
2023/12/29 08:30:45;;;;;;;5.18;1.83;;;;;;;;;;5035285;28;20163;-80
2023/12/29 08:33:12;;;;;;;5.32;1.60;;;;;;;;;;5042944;28;20025;-80
2023/12/29 08:35:39;;;;;;;6.00;1.98;;;;;;;;;;5039967;28;20083;-80
2023/12/29 08:38:04;;;;;;;4.90;1.55;;;;;;;;;;5049467;28;20029;-80
2023/12/29 08:40:30;;;;;;;4.72;1.50;;;;;;;;;;5047877;28;20055;-80
2023/12/29 08:42:55;;;;;;;4.88;1.50;;;;;;;;;;5045181;28;20423;-80
2023/12/29 08:45:20;;;;;;;3.05;1.20;;;;;;;;;;5040822;28;20029;-80
2023/12/29 08:47:46;;;;;;;5.35;1.33;;;;;;;;;;5040969;28;20862;-80
2023/12/29 08:50:11;;;;;;;5.53;1.48;;;;;;;;;;5042723;28;20037;-80
2023/12/29 08:52:37;;;;;;;4.18;1.40;;;;;;;;;;5043032;28;20042;-81
2023/12/29 08:55:03;;;;;;;5.85;1.60;;;;;;;;;;5043406;28;20025;-81
2023/12/29 08:57:28;;;;;;;6.47;1.42;;;;;;;;;;5046246;28;20502;-80
2023/12/29 08:59:54;;;;;;;4.05;1.35;;;;;;;;;;5033726;28;20083;-80
2023/12/29 09:02:20;;;;;;;4.45;1.27;;;;;;;;;;5036596;28;20044;-80
2023/12/29 09:04:45;;;;;;;2.85;1.10;;;;;;;;;;5034313;28;20045;-79
2023/12/29 09:07:11;;;;;;;5.40;1.40;;;;;;;;;;5040228;28;20035;-80
2023/12/29 09:09:36;;;;;;;3.42;1.08;;;;;;;;;;5046273;28;20491;-80
2023/12/29 09:12:01;;;;;;;4.72;1.35;;;;;;;;;;5045014;28;20112;-80
2023/12/29 09:14:29;;;;;;;3.60;1.10;;;;;;;;;;5039238;28;20025;-81
2023/12/29 09:16:55;;;;;;;4.43;1.10;;;;;;;;;;5039834;28;20025;-80
2023/12/29 09:19:20;;;;;;;4.78;1.20;;;;;;;;;;5037420;28;20048;-79
2023/12/29 09:21:46;;;;;;;6.00;1.25;;;;;;;;;;5048949;28;20509;-79
2023/12/29 09:24:11;;;;;;;5.28;0.95;;;;;;;;;;5056856;28;20029;-79
2023/12/29 09:26:37;;;;;;;4.07;1.48;;;;;;;;;;5047513;28;20051;-79
2023/12/29 09:29:02;;;;;;;4.85;1.27;;;;;;;;;;5045867;28;20053;-79
2023/12/29 09:31:29;;;;;;;4.30;1.27;;;;;;;;;;5040625;28;20423;-78
2023/12/29 09:33:56;;;;;;;3.28;1.15;;;;;;;;;;5042416;28;20434;-79
2023/12/29 09:36:22;;;;;;;4.63;1.48;;;;;;;;;;5048530;28;20090;-79
2023/12/29 09:38:47;;;;;;;2.38;1.10;;;;;;;;;;5041242;28;20475;-79
2023/12/29 09:41:15;;;;;;;3.90;1.08;;;;;;;;;;5042984;28;20184;-78
2023/12/29 09:43:42;;;;;;;3.75;1.08;;;;;;;;;;5042957;28;20030;-78
2023/12/29 09:46:08;;;;;;;3.10;1.23;;;;;;;;;;5054772;28;20759;-79
2023/12/29 09:48:36;;;;;;;5.53;1.27;;;;;;;;;;5037353;28;20018;-78
2023/12/29 09:51:04;;;;;;;3.22;1.42;;;;;;;;;;5033212;28;20064;-79
2023/12/29 09:53:30;;;;;;;3.58;1.45;;;;;;;;;;5037032;28;20036;-78
2023/12/29 09:55:59;;;;;;;4.78;1.42;;;;;;;;;;5041786;28;20491;-79
2023/12/29 09:58:25;;;;;;;2.92;1.35;;;;;;;;;;5032433;28;20171;-78
2023/12/29 10:00:51;;;;;;;3.80;1.25;;;;;;;;;;5041775;28;20033;-78
2023/12/29 10:03:17;;;;;;;3.83;1.23;;;;;;;;;;5042410;28;20053;-78
2023/12/29 10:05:44;;;;;;;2.17;0.75;;;;;;;;;;5038316;28;20041;-78
2023/12/29 10:08:11;;;;;;;3.00;1.10;;;;;;;;;;5041464;28;20025;-78
2023/12/29 10:10:40;;;;;;;2.22;1.00;;;;;;;;;;5048338;28;20271;-78
2023/12/29 10:13:09;;;;;;;3.42;1.33;;;;;;;;;;5049218;28;20029;-78
2023/12/29 10:15:42;;;;;;;3.55;1.00;;;;;;;;;;5046997;28;20025;-78
2023/12/29 10:18:18;;;;;;;4.03;1.00;;;;;;;;;;5044753;28;20025;-80
2023/12/29 10:20:53;;;;;;;5.20;1.10;;;;;;;;;;5038749;28;20080;-80
2023/12/29 10:23:22;;;;;;;3.78;0.93;;;;;;;;;;5043652;28;20112;-80
2023/12/29 10:25:49;;;;;;;2.90;1.00;;;;;;;;;;5045849;28;20503;-80
2023/12/29 10:28:17;;;;;;;2.88;1.20;;;;;;;;;;5048115;28;20482;-78
2023/12/29 10:30:42;;;;;;;3.55;0.98;;;;;;;;;;5042140;28;20025;-78
2023/12/29 10:33:08;;;;;;;2.75;1.08;;;;;;;;;;5038618;28;20478;-78
2023/12/29 10:35:39;;;;;;;4.88;1.27;;;;;;;;;;5048403;28;20036;-78
2023/12/29 10:38:12;;;;;;;2.92;1.20;;;;;;;;;;5038233;28;20379;-78
2023/12/29 10:40:38;;;;;;;1.70;1.00;;;;;;;;;;5051553;28;20447;-77
2023/12/29 10:43:06;;;;;;;2.92;1.35;;;;;;;;;;5041885;28;20051;-78
2023/12/29 10:45:32;;;;;;;2.85;1.48;;;;;;;;;;5043226;28;20029;-78
2023/12/29 10:48:00;;;;;;;3.33;1.13;;;;;;;;;;5040923;28;20030;-78
2023/12/29 10:50:27;;;;;;;2.47;1.30;;;;;;;;;;5039279;28;20076;-78
2023/12/29 10:53:11;;;;;;;2.80;1.40;;;;;;;;;;5045259;28;20483;-78
2023/12/29 10:55:38;;;;;;;2.63;1.17;;;;;;;;;;5039726;28;20083;-78
2023/12/29 10:58:05;;;;;;;3.75;1.35;;;;;;;;;;5046404;28;20029;-78
2023/12/29 11:00:31;;;;;;;5.45;1.70;;;;;;;;;;5027820;28;20025;-78
2023/12/29 11:02:56;;;;;;;3.67;1.60;;;;;;;;;;5041145;28;20049;-78
2023/12/29 11:05:25;;;;;;;3.22;1.30;;;;;;;;;;5038754;28;20064;-77
2023/12/29 11:07:53;;;;;;;5.00;1.60;;;;;;;;;;5060268;28;20021;-77
2023/12/29 11:10:20;;;;;;;4.03;1.45;;;;;;;;;;5039864;28;20037;-78
2023/12/29 11:12:46;;;;;;;5.45;1.80;;;;;;;;;;5035315;28;20384;-78
2023/12/29 11:15:13;;;;;;;4.40;1.58;;;;;;;;;;5041239;28;20505;-78
2023/12/29 11:17:52;;;;;;;4.78;2.05;;;;;;;;;;5037670;28;20040;-78
2023/12/29 11:20:19;;;;;;;3.22;1.27;;;;;;;;;;5026442;28;20033;-78
2023/12/29 11:22:46;;;;;;;4.53;1.90;;;;;;;;;;5046156;28;20025;-78
2023/12/29 11:25:12;;;;;;;6.13;1.63;;;;;;;;;;5040136;28;20032;-78
2023/12/29 11:27:38;;;;;;;3.35;1.40;;;;;;;;;;5043255;28;20029;-80
2023/12/29 11:30:04;;;;;;;5.13;1.60;;;;;;;;;;5038549;28;20026;-80
2023/12/29 11:32:51;;;;;;;3.83;1.48;;;;;;;;;;5035194;28;20025;-80
2023/12/29 11:35:49;;;;;;;7.82;1.42;;;;;;;;;;5038678;28;20055;-79
2023/12/29 11:38:40;;;;;;;5.25;1.33;;;;;;;;;;5034206;28;20533;-78
2023/12/29 11:41:13;;;;;;;5.30;1.27;;;;;;;;;;5058937;28;20033;-78
2023/12/29 11:43:38;;;;;;;;;;;;;;;;;;5047069;28;20033;-78
2023/12/29 11:46:04;;;;;;;5.43;1.42;;;;;;;;;;5039869;28;20275;-78
2023/12/29 11:48:58;;;;;;;5.07;1.15;;;;;;;;;;5043276;28;20070;-78
2023/12/29 11:51:29;;;;;;;;;;;;;;;;;;5047078;28;20138;-78
2023/12/29 11:53:54;;;;;;;5.63;1.27;;;;;;;;;;5049236;28;19917;-78
2023/12/29 11:56:20;;;;;;;6.90;1.00;;;;;;;;;;5043275;28;20051;-78
2023/12/29 11:58:45;;;;;;;5.20;1.17;;;;;;;;;;5053180;28;20055;-78
2023/12/29 12:01:10;;;;;;;4.53;1.00;;;;;;;;;;5051755;28;20055;-78
2023/12/29 12:03:36;;;;;;;6.97;1.38;;;;;;;;;;5050079;28;20513;-78
2023/12/29 12:06:03;;;;;;;7.05;1.13;;;;;;;;;;5060852;28;20033;-78
2023/12/29 12:08:39;;;;;;;6.53;1.15;;;;;;;;;;5042810;28;20032;-78
2023/12/29 12:11:30;;;;;;;6.85;1.33;;;;;;;;;;5046507;28;20508;-78
2023/12/29 12:13:56;;;;;;;6.95;1.40;;;;;;;;;;5046907;28;20112;-78
2023/12/29 12:16:46;;;;;;;6.38;1.30;;;;;;;;;;5049145;28;20539;-78
2023/12/29 12:19:12;;;;;;;6.53;1.20;;;;;;;;;;5050742;28;20033;-78
2023/12/29 12:21:38;;;;;;;7.45;1.30;;;;;;;;;;5048521;28;20037;-78
2023/12/29 12:24:04;;;;;;;7.88;1.63;;;;;;;;;;5048891;28;20082;-78
2023/12/29 12:26:34;;;;;;;10.25;1.58;;;;;;;;;;5043221;28;20024;-78
2023/12/29 12:29:00;;;;;;;6.47;1.30;;;;;;;;;;5049134;28;20033;-77
2023/12/29 12:31:26;;;;;;;7.45;1.52;;;;;;;;;;5052485;28;20021;-78
2023/12/29 12:34:01;;;;;;;7.18;1.92;;;;;;;;;;5043254;28;20032;-78
2023/12/29 12:36:26;;;;;;;9.88;2.20;;;;;;;;;;5048544;28;20086;-78
2023/12/29 12:38:56;;;;;;;7.43;1.73;;;;;;;;;;5049593;28;20048;-78
2023/12/29 12:41:26;;;;;;;6.40;1.50;;;;;;;;;;5047706;28;20549;-78
2023/12/29 12:44:11;;;;;;;6.30;1.65;;;;;;;;;;5041534;28;20055;-78
2023/12/29 12:46:44;;;;;;;9.20;1.88;;;;;;;;;;5041287;28;20025;-78
2023/12/29 12:49:09;;;;;;;5.68;1.50;;;;;;;;;;5049946;28;20025;-78
2023/12/29 12:51:35;;;;;;;5.78;1.63;;;;;;;;;;5047745;28;20039;-78
2023/12/29 12:54:01;;;;;;;7.15;1.30;;;;;;;;;;5054204;28;20021;-78
2023/12/29 12:56:27;;;;;;;7.38;1.33;;;;;;;;;;5058583;28;20021;-78
2023/12/29 12:58:55;;;;;;;8.23;1.58;;;;;;;;;;5057516;28;20083;-78
2023/12/29 13:01:21;;;;;;;5.68;1.33;;;;;;;;;;5050611;28;20029;-78
2023/12/29 13:03:46;;;;;;;9.40;2.42;;;;;;;;;;5047245;28;20310;-77
2023/12/29 13:06:12;;;;;;;11.82;1.58;;;;;;;;;;5051270;28;20062;-78
2023/12/29 13:08:37;;;;;;;10.13;1.95;;;;;;;;;;5048101;28;20039;-77
2023/12/29 13:11:03;;;;;;;6.88;2.00;;;;;;;;;;5049500;28;20078;-77
2023/12/29 13:13:42;;;;;;;7.75;1.95;;;;;;;;;;5043868;28;20098;-78
2023/12/29 13:16:09;;;;;;;8.35;2.00;;;;;;;;;;5046931;28;20483;-78
2023/12/29 13:18:34;;;;;;;6.97;1.88;;;;;;;;;;5039665;28;20037;-79
2023/12/29 13:21:01;;;;;;;9.18;1.70;;;;;;;;;;5040729;28;20033;-78
2023/12/29 13:23:27;;;;;;;8.43;2.03;;;;;;;;;;5049674;28;20028;-78
2023/12/29 13:26:02;;;;;;;11.02;2.00;;;;;;;;;;5048419;28;20103;-78
2023/12/29 13:28:29;;;;;;;6.28;1.80;;;;;;;;;;5034193;28;20499;-78
2023/12/29 13:30:55;;;;;;;6.22;1.80;;;;;;;;;;5047839;28;20044;-78
2023/12/29 13:33:31;;;;;;;6.53;1.60;;;;;;;;;;5044570;28;20029;-78
2023/12/29 13:36:09;;;;;;;5.05;1.45;;;;;;;;;;5044694;28;20035;-78
2023/12/29 13:38:43;;;;;;;6.18;1.50;;;;;;;;;;5043552;28;20026;-78
2023/12/29 13:41:12;;;;;;;6.82;1.70;;;;;;;;;;5046786;28;20021;-78
2023/12/29 13:43:42;;;;;;;7.05;2.00;;;;;;;;;;5047745;28;20104;-79
2023/12/29 13:46:09;;;;;;;4.72;1.50;;;;;;;;;;5032320;28;20037;-78
2023/12/29 13:48:35;;;;;;;6.75;1.60;;;;;;;;;;5040160;28;20031;-79
2023/12/29 13:51:02;;;;;;;7.05;2.00;;;;;;;;;;5048859;28;20029;-81
2023/12/29 13:53:27;;;;;;;5.50;2.10;;;;;;;;;;5036799;28;20059;-80
2023/12/29 13:55:52;;;;;;;5.57;2.10;;;;;;;;;;5044918;28;20532;-80
2023/12/29 13:58:18;;;;;;;4.95;2.50;;;;;;;;;;5045988;28;20386;-79
2023/12/29 14:00:53;;;;;;;3.92;2.15;;;;;;;;;;5041406;28;20029;-79
2023/12/29 14:03:37;;;;;;;4.70;1.90;;;;;;;;;;5041547;28;20099;-78
2023/12/29 14:06:07;;;;;;;4.25;1.70;;;;;;;;;;5040634;28;20044;-78
2023/12/29 14:08:40;;;;;;;4.88;1.90;;;;;;;;;;5043005;28;20032;-81
2023/12/29 14:11:09;;;;;;;3.83;1.50;;;;;;;;;;5036387;28;20562;-81
2023/12/29 14:13:44;;;;;;;3.33;1.50;;;;;;;;;;5037785;28;20495;-81
2023/12/29 14:16:11;;;;;;;3.33;1.60;;;;;;;;;;5041021;28;20776;-81
2023/12/29 14:18:43;;;;;;;3.40;1.60;;;;;;;;;;5039123;28;20112;-82
2023/12/29 14:21:27;;;;;;;5.53;2.00;;;;;;;;;;5033037;28;20021;-80
2023/12/29 14:24:12;;;;;;;3.47;1.80;;;;;;;;;;5038271;28;20480;-80
2023/12/29 14:26:52;;;;;;;3.15;1.90;;;;;;;;;;5036514;28;20128;-80
2023/12/29 14:29:18;;;;;;;4.72;2.00;;;;;;;;;;5047742;28;20041;-80
2023/12/29 14:31:45;;;;;;;3.50;1.88;;;;;;;;;;5031847;28;20037;-80
2023/12/29 14:34:11;;;;;;;4.40;2.20;;;;;;;;;;5040715;28;20033;-80
2023/12/29 14:36:39;;;;;;;4.72;2.05;;;;;;;;;;5033506;28;20304;-80
2023/12/29 14:39:04;;;;;;;5.43;2.05;;;;;;;;;;5025575;28;20041;-80
2023/12/29 14:41:30;;;;;;;4.43;2.20;;;;;;;;;;5030420;28;20447;-80